sensor_id;sensor_type;location;lat;lon;timestamp;pressure;altitude;pressure_sealevel;temperature;humidity
80869;BME280;70295;40.182;44.498;2023-08-06T00:00:21;90082.19;;;26.11;33.8918
80869;BME280;70295;40.182;44.498;2023-08-06T00:02:21;90081.61;;;26.09;33.93574
80869;BME280;70295;40.182;44.498;2023-08-06T00:11:08;90077.8;;;26.09;33.95918
80869;BME280;70295;40.182;44.498;2023-08-06T00:13:08;90081.47;;;26.09;33.94746
80869;BME280;70295;40.182;44.498;2023-08-06T00:18:41;90076.87;;;26.05;34.03535
80869;BME280;70295;40.182;44.498;2023-08-06T00:20:41;90074.76;;;26.04;34.10469
80869;BME280;70295;40.182;44.498;2023-08-06T00:22:41;90076.48;;;26.05;34.02461
80869;BME280;70295;40.182;44.498;2023-08-06T00:24:41;90074.5;;;26.05;33.96699
80869;BME280;70295;40.182;44.498;2023-08-06T00:26:41;90075.23;;;26.04;33.95527
80869;BME280;70295;40.182;44.498;2023-08-06T00:28:41;90075.7;;;26.03;33.96601
80869;BME280;70295;40.182;44.498;2023-08-06T00:30:41;90077.88;;;26.01;33.9875
80869;BME280;70295;40.182;44.498;2023-08-06T00:32:41;90074.98;;;26.01;33.98652
80869;BME280;70295;40.182;44.498;2023-08-06T00:34:41;90074.59;;;25.99;33.87031
80869;BME280;70295;40.182;44.498;2023-08-06T00:36:41;90074.3;;;25.98;33.82344
80869;BME280;70295;40.182;44.498;2023-08-06T00:38:41;90079.38;;;25.96;33.8918
80869;BME280;70295;40.182;44.498;2023-08-06T00:40:41;90077.55;;;25.94;34.07344
80869;BME280;70295;40.182;44.498;2023-08-06T00:42:41;90075.91;;;25.94;34.33809
80869;BME280;70295;40.182;44.498;2023-08-06T00:44:41;90077;;;25.94;34.37324
80869;BME280;70295;40.182;44.498;2023-08-06T00:46:41;90083.03;;;25.89;34.47187
80869;BME280;70295;40.182;44.498;2023-08-06T00:48:41;90084.45;;;25.84;34.51484
80869;BME280;70295;40.182;44.498;2023-08-06T00:50:41;90086.95;;;25.81;34.54609
80869;BME280;70295;40.182;44.498;2023-08-06T00:52:41;90092.91;;;25.79;34.63691
80869;BME280;70295;40.182;44.498;2023-08-06T00:54:41;90093.34;;;25.81;34.69551
80869;BME280;70295;40.182;44.498;2023-08-06T00:56:41;90099.32;;;25.83;34.68574
80869;BME280;70295;40.182;44.498;2023-08-06T00:58:41;90100.83;;;25.83;34.67402
80869;BME280;70295;40.182;44.498;2023-08-06T01:00:41;90097.38;;;25.8;34.56855
80869;BME280;70295;40.182;44.498;2023-08-06T01:02:37;90096.27;;;25.8;34.60273
80869;BME280;70295;40.182;44.498;2023-08-06T01:04:37;90099.9;;;25.81;34.62617
80869;BME280;70295;40.182;44.498;2023-08-06T01:14:47;90096.43;;;25.71;34.74531
80869;BME280;70295;40.182;44.498;2023-08-06T01:16:37;90091.09;;;25.67;34.86836
80869;BME280;70295;40.182;44.498;2023-08-06T01:18:37;90094.37;;;25.62;34.95723
80869;BME280;70295;40.182;44.498;2023-08-06T01:20:37;90094.06;;;25.61;35.05879
80869;BME280;70295;40.182;44.498;2023-08-06T01:22:37;90095.93;;;25.61;35.09297
80869;BME280;70295;40.182;44.498;2023-08-06T01:24:37;90097.35;;;25.61;35.08125
80869;BME280;70295;40.182;44.498;2023-08-06T01:26:39;90098.85;;;25.61;35.04707
80869;BME280;70295;40.182;44.498;2023-08-06T01:30:37;90096.78;;;25.61;34.86445
80869;BME280;70295;40.182;44.498;2023-08-06T01:32:37;90095.28;;;25.62;34.81855
80869;BME280;70295;40.182;44.498;2023-08-06T01:34:37;90100.97;;;25.62;34.6916
80869;BME280;70295;40.182;44.498;2023-08-06T01:36:37;90095.44;;;25.63;34.64668
80869;BME280;70295;40.182;44.498;2023-08-06T01:38:37;90095.87;;;25.62;34.58809
80869;BME280;70295;40.182;44.498;2023-08-06T01:40:37;90097.95;;;25.6;34.58809
80869;BME280;70295;40.182;44.498;2023-08-06T01:42:37;90102.5;;;25.61;34.57637
80869;BME280;70295;40.182;44.498;2023-08-06T01:44:37;90102.51;;;25.6;34.58809
80869;BME280;70295;40.182;44.498;2023-08-06T01:46:37;90103.72;;;25.61;34.65644
80869;BME280;70295;40.182;44.498;2023-08-06T01:48:37;90102.13;;;25.63;34.65937
80869;BME280;70295;40.182;44.498;2023-08-06T01:50:37;90104.41;;;25.64;34.62519
80869;BME280;70295;40.182;44.498;2023-08-06T01:52:37;90108.12;;;25.64;34.5666
80869;BME280;70295;40.182;44.498;2023-08-06T01:54:37;90111.67;;;25.65;34.56855
80869;BME280;70295;40.182;44.498;2023-08-06T01:56:37;90114.63;;;25.64;34.55586
80869;BME280;70295;40.182;44.498;2023-08-06T01:58:37;90110.57;;;25.63;34.57734
80869;BME280;70295;40.182;44.498;2023-08-06T02:00:37;90113.93;;;25.61;34.53047
80869;BME280;70295;40.182;44.498;2023-08-06T02:02:37;90109.61;;;25.58;34.53926
80869;BME280;70295;40.182;44.498;2023-08-06T02:04:37;90112.61;;;25.54;34.55976
80869;BME280;70295;40.182;44.498;2023-08-06T02:06:37;90114.77;;;25.5;34.5793
80869;BME280;70295;40.182;44.498;2023-08-06T02:08:37;90118.09;;;25.47;34.61152
80869;BME280;70295;40.182;44.498;2023-08-06T02:10:37;90119.77;;;25.47;34.66816
80869;BME280;70295;40.182;44.498;2023-08-06T02:12:37;90120.55;;;25.46;34.66816
80869;BME280;70295;40.182;44.498;2023-08-06T02:14:37;90118.92;;;25.46;34.69062
80869;BME280;70295;40.182;44.498;2023-08-06T02:16:37;90117.74;;;25.44;34.72383
80869;BME280;70295;40.182;44.498;2023-08-06T02:18:37;90120.45;;;25.42;34.76875
80869;BME280;70295;40.182;44.498;2023-08-06T02:20:37;90120.32;;;25.37;34.82148
80869;BME280;70295;40.182;44.498;2023-08-06T02:22:37;90126.34;;;25.3;34.90742
80869;BME280;70295;40.182;44.498;2023-08-06T02:24:37;90125.61;;;25.25;35.04121
80869;BME280;70295;40.182;44.498;2023-08-06T02:26:37;90129.5;;;25.21;35.10664
80869;BME280;70295;40.182;44.498;2023-08-06T02:28:37;90132.55;;;25.17;35.14961
80869;BME280;70295;40.182;44.498;2023-08-06T02:30:37;90129.67;;;25.14;35.21699
80869;BME280;70295;40.182;44.498;2023-08-06T02:32:37;90129.65;;;25.12;35.26094
80869;BME280;70295;40.182;44.498;2023-08-06T02:34:37;90129.2;;;25.11;35.3166
80869;BME280;70295;40.182;44.498;2023-08-06T02:36:37;90133.48;;;25.12;35.33027
80869;BME280;70295;40.182;44.498;2023-08-06T02:38:37;90129.81;;;25.15;35.34297
80869;BME280;70295;40.182;44.498;2023-08-06T02:40:42;90129.66;;;25.17;35.32246
80869;BME280;70295;40.182;44.498;2023-08-06T02:42:37;90134.28;;;25.18;35.32246
80869;BME280;70295;40.182;44.498;2023-08-06T02:44:37;90136.66;;;25.18;35.36836
80869;BME280;70295;40.182;44.498;2023-08-06T02:46:37;90136.65;;;25.18;35.43769
80869;BME280;70295;40.182;44.498;2023-08-06T02:48:37;90140.71;;;25.22;35.40644
80869;BME280;70295;40.182;44.498;2023-08-06T02:52:37;90143.52;;;25.31;35.3
80869;BME280;70295;40.182;44.498;2023-08-06T02:54:37;90144.59;;;25.34;35.27851
80869;BME280;70295;40.182;44.498;2023-08-06T02:56:37;90149.73;;;25.39;35.29316
80869;BME280;70295;40.182;44.498;2023-08-06T02:58:37;90149.63;;;25.42;35.28535
80869;BME280;70295;40.182;44.498;2023-08-06T03:00:37;90146.8;;;25.46;35.28828
80869;BME280;70295;40.182;44.498;2023-08-06T03:02:37;90153.13;;;25.49;35.175
80869;BME280;70295;40.182;44.498;2023-08-06T03:04:37;90154.16;;;25.52;35.18965
80869;BME280;70295;40.182;44.498;2023-08-06T03:06:37;90158.38;;;25.57;35.19355
80869;BME280;70295;40.182;44.498;2023-08-06T03:08:37;90160.7;;;25.63;35.19844
80869;BME280;70295;40.182;44.498;2023-08-06T03:10:37;90155.98;;;25.72;35.13691
80869;BME280;70295;40.182;44.498;2023-08-06T03:12:37;90161.2;;;25.83;35.00703
80869;BME280;70295;40.182;44.498;2023-08-06T03:14:37;90159.44;;;25.94;34.84394
80869;BME280;70295;40.182;44.498;2023-08-06T03:16:37;90158.06;;;26.05;34.74824
80869;BME280;70295;40.182;44.498;2023-08-06T03:18:37;90155.22;;;26.18;34.66719
80869;BME280;70295;40.182;44.498;2023-08-06T03:20:37;90153.31;;;26.33;34.66816
80869;BME280;70295;40.182;44.498;2023-08-06T03:22:37;90152.47;;;26.46;34.50508
80869;BME280;70295;40.182;44.498;2023-08-06T03:24:37;90155.92;;;26.56;34.47871
80869;BME280;70295;40.182;44.498;2023-08-06T03:26:37;90157.5;;;26.61;34.39082
80869;BME280;70295;40.182;44.498;2023-08-06T03:28:37;90159.33;;;26.63;34.41621
80869;BME280;70295;40.182;44.498;2023-08-06T03:30:37;90158.96;;;26.63;34.34785
80869;BME280;70295;40.182;44.498;2023-08-06T03:32:37;90161.02;;;26.65;34.33613
80869;BME280;70295;40.182;44.498;2023-08-06T03:34:37;90160.67;;;26.67;34.25703
80869;BME280;70295;40.182;44.498;2023-08-06T03:36:37;90158.71;;;26.64;34.33613
80869;BME280;70295;40.182;44.498;2023-08-06T03:38:37;90158.34;;;26.67;34.42988
80869;BME280;70295;40.182;44.498;2023-08-06T03:40:37;90161.58;;;26.69;34.39766
80869;BME280;70295;40.182;44.498;2023-08-06T03:42:37;90163.33;;;26.77;34.41523
80869;BME280;70295;40.182;44.498;2023-08-06T03:44:37;90165.24;;;26.92;34.19746
80869;BME280;70295;40.182;44.498;2023-08-06T03:46:37;90163.62;;;26.97;33.96992
80869;BME280;70295;40.182;44.498;2023-08-06T03:48:37;90167.28;;;27.06;34.04609
80869;BME280;70295;40.182;44.498;2023-08-06T03:50:36;90168.83;;;27.23;33.89766
80869;BME280;70295;40.182;44.498;2023-08-06T03:52:36;90169.8;;;27.38;33.60957
80869;BME280;70295;40.182;44.498;2023-08-06T03:54:37;90171.5;;;27.39;33.44844
80869;BME280;70295;40.182;44.498;2023-08-06T03:56:37;90175.45;;;27.45;33.54609
80869;BME280;70295;40.182;44.498;2023-08-06T03:58:37;90177.1;;;27.58;33.37129
80869;BME280;70295;40.182;44.498;2023-08-06T04:00:37;90173.02;;;27.72;33.30098
80869;BME280;70295;40.182;44.498;2023-08-06T04:02:36;90172.07;;;27.83;33.06758
80869;BME280;70295;40.182;44.498;2023-08-06T04:04:36;90175.48;;;27.88;32.97871
80869;BME280;70295;40.182;44.498;2023-08-06T04:06:36;90178.07;;;28.01;32.91914
80869;BME280;70295;40.182;44.498;2023-08-06T04:08:37;90171.6;;;28.24;32.78535
80869;BME280;70295;40.182;44.498;2023-08-06T04:10:37;90171.83;;;28.45;32.41914
80869;BME280;70295;40.182;44.498;2023-08-06T04:12:37;90174.81;;;28.55;32.04512
80869;BME280;70295;40.182;44.498;2023-08-06T04:14:36;90176.72;;;28.59;31.71309
80869;BME280;70295;40.182;44.498;2023-08-06T04:16:36;90176.48;;;28.68;31.47676
80869;BME280;70295;40.182;44.498;2023-08-06T04:18:36;90174.97;;;28.83;31.07051
80869;BME280;70295;40.182;44.498;2023-08-06T04:22:37;90167.33;;;29.2;30.23848
80869;BME280;70295;40.182;44.498;2023-08-06T04:24:37;90170.98;;;29.2;29.82246
80869;BME280;70295;40.182;44.498;2023-08-06T04:26:36;90171.95;;;29.13;29.7707
80869;BME280;70295;40.182;44.498;2023-08-06T04:28:36;90171.23;;;29.23;29.80098
80869;BME280;70295;40.182;44.498;2023-08-06T04:30:37;90171.17;;;29.44;29.52559
80869;BME280;70295;40.182;44.498;2023-08-06T04:32:36;90171.25;;;29.62;29.23555
80869;BME280;70295;40.182;44.498;2023-08-06T04:34:37;90172.31;;;29.73;29.01094
80869;BME280;70295;40.182;44.498;2023-08-06T04:36:37;90173.25;;;29.89;28.7541
80869;BME280;70295;40.182;44.498;2023-08-06T04:38:37;90168.95;;;30.06;28.62519
80869;BME280;70295;40.182;44.498;2023-08-06T04:40:36;90173.81;;;30.23;28.50898
80869;BME280;70295;40.182;44.498;2023-08-06T04:42:36;90171.24;;;30.37;28.23945
80869;BME280;70295;40.182;44.498;2023-08-06T04:44:36;90174.75;;;30.48;27.97969
80869;BME280;70295;40.182;44.498;2023-08-06T04:46:36;90170.11;;;30.6;27.67305
80869;BME280;70295;40.182;44.498;2023-08-06T04:48:37;90169.75;;;30.72;27.4123
80869;BME280;70295;40.182;44.498;2023-08-06T04:50:37;90172.99;;;30.83;27.11543
80869;BME280;70295;40.182;44.498;2023-08-06T04:52:37;90172.7;;;30.93;27.12226
80869;BME280;70295;40.182;44.498;2023-08-06T04:54:36;90168.25;;;31.07;26.99141
80869;BME280;70295;40.182;44.498;2023-08-06T04:56:36;90167.98;;;31.17;26.75312
80869;BME280;70295;40.182;44.498;2023-08-06T04:58:36;90167.1;;;31.29;26.64375
80869;BME280;70295;40.182;44.498;2023-08-06T05:00:36;90162.91;;;31.4;26.44062
80869;BME280;70295;40.182;44.498;2023-08-06T05:02:36;90161.34;;;31.5;26.24824
80869;BME280;70295;40.182;44.498;2023-08-06T05:04:37;90156.95;;;31.54;25.72578
80869;BME280;70295;40.182;44.498;2023-08-06T05:06:36;90158.8;;;31.48;25.34883
80869;BME280;70295;40.182;44.498;2023-08-06T05:08:36;90156.11;;;31.38;25.48262
80869;BME280;70295;40.182;44.498;2023-08-06T05:10:36;90154.94;;;31.36;25.62226
80869;BME280;70295;40.182;44.498;2023-08-06T05:18:06;90151.03;;;31.71;25.19844
80869;BME280;70295;40.182;44.498;2023-08-06T05:20:07;90148.39;;;31.77;25.07441
80869;BME280;70295;40.182;44.498;2023-08-06T05:22:06;90145.25;;;31.87;25.10273
80869;BME280;70295;40.182;44.498;2023-08-06T05:24:06;90147.28;;;31.99;24.73652
80869;BME280;70295;40.182;44.498;2023-08-06T05:26:07;90144.17;;;32.07;24.6584
80869;BME280;70295;40.182;44.498;2023-08-06T05:28:06;90143.77;;;32.14;24.56953
80869;BME280;70295;40.182;44.498;2023-08-06T05:30:06;90142.44;;;32.24;24.42305
80869;BME280;70295;40.182;44.498;2023-08-06T05:32:07;90140.93;;;32.32;24.33418
80869;BME280;70295;40.182;44.498;2023-08-06T05:34:07;90145.28;;;32.41;24.19844
80869;BME280;70295;40.182;44.498;2023-08-06T05:36:07;90137.56;;;32.54;24.15937
80869;BME280;70295;40.182;44.498;2023-08-06T05:38:06;90138.91;;;32.66;23.95527
80869;BME280;70295;40.182;44.498;2023-08-06T05:40:06;90135.88;;;32.76;23.88984
80869;BME280;70295;40.182;44.498;2023-08-06T05:42:07;90140.22;;;32.85;23.82539
80869;BME280;70295;40.182;44.498;2023-08-06T05:44:06;90133.52;;;32.93;23.68867
80869;BME280;70295;40.182;44.498;2023-08-06T05:46:06;90134.42;;;32.97;23.60957
80869;BME280;70295;40.182;44.498;2023-08-06T05:48:06;90132.03;;;33.02;23.60078
80869;BME280;70295;40.182;44.498;2023-08-06T05:50:07;90130.43;;;33.12;23.64082
80869;BME280;70295;40.182;44.498;2023-08-06T05:52:07;90129.47;;;33.18;23.62031
80869;BME280;70295;40.182;44.498;2023-08-06T05:54:06;90128.29;;;33.26;23.74141
80869;BME280;70295;40.182;44.498;2023-08-06T05:56:06;90126.03;;;33.35;23.37226
80869;BME280;70295;40.182;44.498;2023-08-06T05:58:07;90125.5;;;33.38;23.46797
80869;BME280;70295;40.182;44.498;2023-08-06T06:00:07;90119.86;;;33.46;23.51875
80869;BME280;70295;40.182;44.498;2023-08-06T06:02:07;90122.16;;;33.52;23.08809
80869;BME280;70295;40.182;44.498;2023-08-06T06:04:06;90119.06;;;33.52;23.00508
80869;BME280;70295;40.182;44.498;2023-08-06T06:06:06;90117.31;;;33.49;22.89863
80869;BME280;70295;40.182;44.498;2023-08-06T06:08:07;90112.23;;;33.48;22.92207
80869;BME280;70295;40.182;44.498;2023-08-06T06:10:07;90107.86;;;33.53;22.88887
80869;BME280;70295;40.182;44.498;2023-08-06T06:12:06;90104.43;;;33.58;22.80976
80869;BME280;70295;40.182;44.498;2023-08-06T06:14:06;90099.73;;;33.62;22.76484
80869;BME280;70295;40.182;44.498;2023-08-06T06:16:06;90094.89;;;33.68;22.81465
80869;BME280;70295;40.182;44.498;2023-08-06T06:18:07;90096.39;;;33.71;22.91035
80869;BME280;70295;40.182;44.498;2023-08-06T06:20:07;90098.64;;;33.74;22.87617
80869;BME280;70295;40.182;44.498;2023-08-06T06:22:06;90096.38;;;33.73;22.81758
80869;BME280;70295;40.182;44.498;2023-08-06T06:24:06;90092.33;;;33.76;22.73652
80869;BME280;70295;40.182;44.498;2023-08-06T06:26:06;90095.13;;;33.81;22.77461
80869;BME280;70295;40.182;44.498;2023-08-06T06:28:06;90083.75;;;33.9;22.70918
80869;BME280;70295;40.182;44.498;2023-08-06T06:30:07;90086.41;;;33.98;22.5959
80869;BME280;70295;40.182;44.498;2023-08-06T06:32:06;90088.92;;;34.05;22.45918
80869;BME280;70295;40.182;44.498;2023-08-06T06:34:07;90086.66;;;34.13;22.18086
80869;BME280;70295;40.182;44.498;2023-08-06T06:36:06;90085.97;;;34.07;22.17793
80869;BME280;70295;40.182;44.498;2023-08-06T06:38:06;90080.67;;;34.08;22.26094
80869;BME280;70295;40.182;44.498;2023-08-06T06:40:07;90080.14;;;34.15;22.36934
80869;BME280;70295;40.182;44.498;2023-08-06T06:42:06;90082.09;;;34.24;22.32734
80869;BME280;70295;40.182;44.498;2023-08-06T06:44:06;90081.7;;;34.31;22.23652
80869;BME280;70295;40.182;44.498;2023-08-06T06:46:06;90081.91;;;34.36;22.16914
80869;BME280;70295;40.182;44.498;2023-08-06T06:48:06;90075.13;;;34.35;21.96894
80869;BME280;70295;40.182;44.498;2023-08-06T06:50:07;90076.16;;;34.33;21.83906
80869;BME280;70295;40.182;44.498;2023-08-06T06:52:06;90072.96;;;34.37;21.89863
80869;BME280;70295;40.182;44.498;2023-08-06T06:54:07;90068.25;;;34.37;21.93476
80869;BME280;70295;40.182;44.498;2023-08-06T06:56:07;90069.23;;;34.4;21.925
80869;BME280;70295;40.182;44.498;2023-08-06T06:58:06;90060.53;;;34.47;21.90449
80869;BME280;70295;40.182;44.498;2023-08-06T07:00:07;90063.37;;;34.53;21.88398
80869;BME280;70295;40.182;44.498;2023-08-06T07:02:06;90062.03;;;34.58;21.62812
80869;BME280;70295;40.182;44.498;2023-08-06T07:04:06;90058.61;;;34.61;21.6291
80869;BME280;70295;40.182;44.498;2023-08-06T07:06:06;90055.07;;;34.65;21.64277
80869;BME280;70295;40.182;44.498;2023-08-06T07:08:06;90051.42;;;34.68;21.66719
80869;BME280;70295;40.182;44.498;2023-08-06T07:10:06;90052.44;;;34.7;21.61055
80869;BME280;70295;40.182;44.498;2023-08-06T07:12:07;90047.7;;;34.71;21.50508
80869;BME280;70295;40.182;44.498;2023-08-06T07:14:07;90044.38;;;34.68;21.55
80869;BME280;70295;40.182;44.498;2023-08-06T07:16:06;90044.16;;;34.65;21.5373
80869;BME280;70295;40.182;44.498;2023-08-06T07:18:06;90034.21;;;34.59;21.60469
80869;BME280;70295;40.182;44.498;2023-08-06T07:20:06;90032.14;;;34.51;21.71894
80869;BME280;70295;40.182;44.498;2023-08-06T07:22:06;90034.85;;;34.45;21.8918
80869;BME280;70295;40.182;44.498;2023-08-06T07:24:06;90031.03;;;34.41;21.98359
80869;BME280;70295;40.182;44.498;2023-08-06T07:26:06;90033.56;;;34.35;22.06269
80869;BME280;70295;40.182;44.498;2023-08-06T07:28:06;90027.43;;;34.31;22.0373
80869;BME280;70295;40.182;44.498;2023-08-06T07:36:18;90019.86;;;34.17;22.35859
80869;BME280;70295;40.182;44.498;2023-08-06T07:38:17;90024.2;;;34.11;22.55586
80869;BME280;70295;40.182;44.498;2023-08-06T07:40:28;90015.42;;;34.1;22.80195
80869;BME280;70295;40.182;44.498;2023-08-06T07:42:28;90008.65;;;34.08;22.62422
80869;BME280;70295;40.182;44.498;2023-08-06T07:44:28;90002.7;;;34.05;22.57539
80869;BME280;70295;40.182;44.498;2023-08-06T07:46:28;90009.56;;;34.05;22.5998
80869;BME280;70295;40.182;44.498;2023-08-06T07:48:28;90002.03;;;34.03;22.62226
80869;BME280;70295;40.182;44.498;2023-08-06T07:50:28;90000.61;;;34;22.62031
80869;BME280;70295;40.182;44.498;2023-08-06T07:52:28;89998.25;;;33.98;22.5959
80869;BME280;70295;40.182;44.498;2023-08-06T07:54:28;89997.73;;;33.95;22.50019
80869;BME280;70295;40.182;44.498;2023-08-06T07:56:28;89990.11;;;33.82;22.50508
80869;BME280;70295;40.182;44.498;2023-08-06T07:58:28;89988.31;;;33.7;22.56953
80869;BME280;70295;40.182;44.498;2023-08-06T08:00:28;89990.8;;;33.55;22.81953
80869;BME280;70295;40.182;44.498;2023-08-06T08:02:27;89990.67;;;33.56;22.83223
80869;BME280;70295;40.182;44.498;2023-08-06T08:04:28;89987.28;;;33.62;22.85859
80869;BME280;70295;40.182;44.498;2023-08-06T08:06:28;89985.24;;;33.65;23.00117
80869;BME280;70295;40.182;44.498;2023-08-06T08:08:28;89981.42;;;33.67;22.96601
80869;BME280;70295;40.182;44.498;2023-08-06T08:10:27;89985.27;;;33.69;22.90937
80869;BME280;70295;40.182;44.498;2023-08-06T08:12:28;89985.06;;;33.71;22.86348
80869;BME280;70295;40.182;44.498;2023-08-06T08:14:28;89968.49;;;33.72;22.86348
80869;BME280;70295;40.182;44.498;2023-08-06T08:16:28;89983.91;;;33.71;22.99238
80869;BME280;70295;40.182;44.498;2023-08-06T08:18:28;89978.63;;;33.72;23.02851
80869;BME280;70295;40.182;44.498;2023-08-06T08:20:28;89976.34;;;33.64;22.84785
80869;BME280;70295;40.182;44.498;2023-08-06T08:22:28;89977.33;;;33.46;22.87422
80869;BME280;70295;40.182;44.498;2023-08-06T08:24:28;89968.17;;;33.32;23.1125
80869;BME280;70295;40.182;44.498;2023-08-06T08:26:27;89971.86;;;33.36;23.23164
80869;BME280;70295;40.182;44.498;2023-08-06T08:28:28;89969.42;;;33.41;23.28144
80869;BME280;70295;40.182;44.498;2023-08-06T08:30:28;89967.31;;;33.45;23.25996
80869;BME280;70295;40.182;44.498;2023-08-06T08:37:33;89966.42;;;33.48;22.99238
80869;BME280;70295;40.182;44.498;2023-08-06T08:39:33;89963.8;;;33.49;23.0041
80869;BME280;70295;40.182;44.498;2023-08-06T08:41:33;89959.49;;;33.51;22.86445
80869;BME280;70295;40.182;44.498;2023-08-06T08:43:33;89949.94;;;33.5;22.78242
80869;BME280;70295;40.182;44.498;2023-08-06T08:45:33;89949.98;;;33.5;22.91133
80869;BME280;70295;40.182;44.498;2023-08-06T08:47:33;89945.75;;;33.53;22.99434
80869;BME280;70295;40.182;44.498;2023-08-06T08:49:33;89942.06;;;33.53;22.71309
80869;BME280;70295;40.182;44.498;2023-08-06T08:51:33;89937.75;;;33.49;22.71113
80869;BME280;70295;40.182;44.498;2023-08-06T08:53:33;89928.23;;;33.46;22.89766
80869;BME280;70295;40.182;44.498;2023-08-06T08:55:33;89931.38;;;33.46;23.21406
80869;BME280;70295;40.182;44.498;2023-08-06T08:57:33;89925.11;;;33.5;23.25117
80869;BME280;70295;40.182;44.498;2023-08-06T08:59:33;89919.59;;;33.51;23.09883
80869;BME280;70295;40.182;44.498;2023-08-06T09:01:33;89916.89;;;33.49;23.05098
80869;BME280;70295;40.182;44.498;2023-08-06T09:03:33;89918.1;;;33.46;23.10859
80869;BME280;70295;40.182;44.498;2023-08-06T09:05:33;89917.86;;;33.45;23.15449
80869;BME280;70295;40.182;44.498;2023-08-06T09:07:35;89919.35;;;33.47;23.21406
80869;BME280;70295;40.182;44.498;2023-08-06T09:09:33;89912.27;;;33.44;23.03633
80869;BME280;70295;40.182;44.498;2023-08-06T09:11:34;89903.48;;;33.43;23.05976
80869;BME280;70295;40.182;44.498;2023-08-06T09:13:33;89914.16;;;33.45;22.96699
80869;BME280;70295;40.182;44.498;2023-08-06T09:15:33;89909.33;;;33.44;22.86055
80869;BME280;70295;40.182;44.498;2023-08-06T09:17:33;89903.14;;;33.38;22.82246
80869;BME280;70295;40.182;44.498;2023-08-06T09:19:33;89899.55;;;33.35;23.11348
80869;BME280;70295;40.182;44.498;2023-08-06T09:21:33;89896.47;;;33.36;23.26777
80869;BME280;70295;40.182;44.498;2023-08-06T09:23:33;89894.17;;;33.4;23.37519
80869;BME280;70295;40.182;44.498;2023-08-06T09:25:33;89886.95;;;33.41;23.35176
80869;BME280;70295;40.182;44.498;2023-08-06T09:27:33;89889.8;;;33.4;23.3166
80869;BME280;70295;40.182;44.498;2023-08-06T09:29:33;89885.2;;;33.4;23.24531
80869;BME280;70295;40.182;44.498;2023-08-06T09:33:33;89880.17;;;33.42;23.29414
80869;BME280;70295;40.182;44.498;2023-08-06T09:35:33;89877.02;;;33.4;23.29316
80869;BME280;70295;40.182;44.498;2023-08-06T09:39:33;89871.13;;;33.27;23.23848
80869;BME280;70295;40.182;44.498;2023-08-06T09:41:33;89866.69;;;33.25;23.46113
80869;BME280;70295;40.182;44.498;2023-08-06T09:47:33;89860.96;;;33.29;23.42695
80869;BME280;70295;40.182;44.498;2023-08-06T09:51:33;89851.71;;;33.29;23.48555
80869;BME280;70295;40.182;44.498;2023-08-06T09:53:33;89844.56;;;33.3;23.49824
80869;BME280;70295;40.182;44.498;2023-08-06T09:55:33;89850.8;;;33.32;23.39375
80869;BME280;70295;40.182;44.498;2023-08-06T09:57:33;89850.5;;;33.3;23.26387
80869;BME280;70295;40.182;44.498;2023-08-06T09:59:33;89845.42;;;33.29;23.1584
80869;BME280;70295;40.182;44.498;2023-08-06T10:01:33;89843.81;;;33.27;23.15644
80869;BME280;70295;40.182;44.498;2023-08-06T10:03:33;89837.75;;;33.27;23.08613
80869;BME280;70295;40.182;44.498;2023-08-06T10:05:33;89837.48;;;33.24;23.01387
80869;BME280;70295;40.182;44.498;2023-08-06T10:07:33;89835.5;;;33.22;23.05976
80869;BME280;70295;40.182;44.498;2023-08-06T10:09:33;89829.88;;;33.19;23.15254
80869;BME280;70295;40.182;44.498;2023-08-06T10:11:33;89828.08;;;33.12;23.20723
80869;BME280;70295;40.182;44.498;2023-08-06T10:13:33;89824.38;;;33.09;23.35762
80869;BME280;70295;40.182;44.498;2023-08-06T10:15:33;89824.02;;;33.08;23.48652
80869;BME280;70295;40.182;44.498;2023-08-06T10:17:33;89820.06;;;33.08;23.52168
80869;BME280;70295;40.182;44.498;2023-08-06T10:19:33;89814.47;;;33.06;23.49726
80869;BME280;70295;40.182;44.498;2023-08-06T10:21:33;89807.26;;;33.07;23.45039
80869;BME280;70295;40.182;44.498;2023-08-06T10:23:33;89804.59;;;33.04;23.47187
80869;BME280;70295;40.182;44.498;2023-08-06T10:27:34;89797.51;;;33.01;23.43574
80869;BME280;70295;40.182;44.498;2023-08-06T10:39:33;89782.25;;;32.97;23.51582
80869;BME280;70295;40.182;44.498;2023-08-06T10:41:33;89781.72;;;32.96;23.83125
80869;BME280;70295;40.182;44.498;2023-08-06T10:43:33;89774.58;;;32.97;23.925
80869;BME280;70295;40.182;44.498;2023-08-06T10:47:37;89769.89;;;33.03;23.69453
80869;BME280;70295;40.182;44.498;2023-08-06T10:49:33;89764.33;;;33.01;23.72871
80869;BME280;70295;40.182;44.498;2023-08-06T10:51:33;89749.32;;;33.02;23.75215
80869;BME280;70295;40.182;44.498;2023-08-06T10:53:33;89751.09;;;33.01;23.71699
80869;BME280;70295;40.182;44.498;2023-08-06T10:55:33;89755.83;;;32.96;23.65547
80869;BME280;70295;40.182;44.498;2023-08-06T10:57:33;89749.63;;;32.94;23.7834
80869;BME280;70295;40.182;44.498;2023-08-06T10:59:33;89752.75;;;32.92;23.73555
80869;BME280;70295;40.182;44.498;2023-08-06T11:01:33;89746.88;;;32.95;23.59687
80869;BME280;70295;40.182;44.498;2023-08-06T11:03:33;89746.75;;;32.97;23.46797
80869;BME280;70295;40.182;44.498;2023-08-06T11:05:33;89739.98;;;32.99;23.43476
80869;BME280;70295;40.182;44.498;2023-08-06T11:07:33;89747.78;;;33.02;23.2375
80869;BME280;70295;40.182;44.498;2023-08-06T11:09:33;89741.44;;;33.01;23.14277